sensor_id;sensor_type;location;lat;lon;timestamp;pressure;altitude;pressure_sealevel;temperature;humidity
77250;BME280;66287;42.658;27.568;2023-04-15T00:02:16;99532.13;;;17.37;56.96
77250;BME280;66287;42.658;27.568;2023-04-15T00:04:43;99538.91;;;17.29;57.12
77250;BME280;66287;42.658;27.568;2023-04-15T00:07:09;99527.09;;;17.23;57.31
77250;BME280;66287;42.658;27.568;2023-04-15T00:09:35;99529.53;;;17.20;57.29
77250;BME280;66287;42.658;27.568;2023-04-15T00:12:00;99525.13;;;17.14;57.50
77250;BME280;66287;42.658;27.568;2023-04-15T00:14:26;99525.63;;;17.11;57.42
77250;BME280;66287;42.658;27.568;2023-04-15T00:16:52;99518.47;;;17.05;57.68
77250;BME280;66287;42.658;27.568;2023-04-15T00:19:20;99532.72;;;17.07;57.42
77250;BME280;66287;42.658;27.568;2023-04-15T00:21:45;99526.91;;;16.98;57.76
77250;BME280;66287;42.658;27.568;2023-04-15T00:24:11;99517.00;;;16.92;57.74
77250;BME280;66287;42.658;27.568;2023-04-15T00:26:37;99520.25;;;16.89;58.12
77250;BME280;66287;42.658;27.568;2023-04-15T00:29:02;99521.56;;;16.81;58.23
77250;BME280;66287;42.658;27.568;2023-04-15T00:31:28;99519.88;;;16.75;58.32
77250;BME280;66287;42.658;27.568;2023-04-15T00:33:54;99521.22;;;16.73;57.95
77250;BME280;66287;42.658;27.568;2023-04-15T00:36:20;99521.72;;;16.70;57.99
77250;BME280;66287;42.658;27.568;2023-04-15T00:38:46;99529.06;;;16.64;58.33
77250;BME280;66287;42.658;27.568;2023-04-15T00:41:11;99535.56;;;16.58;58.60
77250;BME280;66287;42.658;27.568;2023-04-15T00:43:37;99533.06;;;16.57;58.22
77250;BME280;66287;42.658;27.568;2023-04-15T00:46:03;99530.03;;;16.53;58.00
77250;BME280;66287;42.658;27.568;2023-04-15T00:48:29;99526.16;;;16.49;58.31
77250;BME280;66287;42.658;27.568;2023-04-15T00:50:55;99525.25;;;16.43;58.63
77250;BME280;66287;42.658;27.568;2023-04-15T00:53:21;99531.25;;;16.40;58.55
77250;BME280;66287;42.658;27.568;2023-04-15T00:55:46;99527.06;;;16.33;58.64
77250;BME280;66287;42.658;27.568;2023-04-15T00:58:12;99525.41;;;16.32;58.52
77250;BME280;66287;42.658;27.568;2023-04-15T01:00:37;99525.59;;;16.25;58.90
77250;BME280;66287;42.658;27.568;2023-04-15T01:03:02;99535.41;;;16.21;58.95
77250;BME280;66287;42.658;27.568;2023-04-15T01:05:28;99530.72;;;16.16;59.16
77250;BME280;66287;42.658;27.568;2023-04-15T01:07:55;99533.72;;;16.15;59.11
77250;BME280;66287;42.658;27.568;2023-04-15T01:10:20;99527.94;;;16.11;59.24
77250;BME280;66287;42.658;27.568;2023-04-15T01:12:46;99524.09;;;16.12;58.76
77250;BME280;66287;42.658;27.568;2023-04-15T01:15:12;99526.53;;;16.09;58.99
77250;BME280;66287;42.658;27.568;2023-04-15T01:17:38;99525.13;;;16.06;58.85
77250;BME280;66287;42.658;27.568;2023-04-15T01:20:05;99522.31;;;16.01;59.21
77250;BME280;66287;42.658;27.568;2023-04-15T01:22:35;99518.47;;;15.97;59.17
77250;BME280;66287;42.658;27.568;2023-04-15T01:25:01;99522.28;;;15.96;59.11
77250;BME280;66287;42.658;27.568;2023-04-15T01:27:30;99526.84;;;15.91;59.17
77250;BME280;66287;42.658;27.568;2023-04-15T01:29:56;99520.16;;;15.81;59.62
77250;BME280;66287;42.658;27.568;2023-04-15T01:32:22;99512.69;;;15.72;59.95
77250;BME280;66287;42.658;27.568;2023-04-15T01:34:50;99516.16;;;15.67;60.23
77250;BME280;66287;42.658;27.568;2023-04-15T01:37:16;99509.88;;;15.67;59.99
77250;BME280;66287;42.658;27.568;2023-04-15T01:39:41;99513.69;;;15.66;59.75
77250;BME280;66287;42.658;27.568;2023-04-15T01:42:07;99510.38;;;15.64;59.88
77250;BME280;66287;42.658;27.568;2023-04-15T01:44:32;99520.13;;;15.60;59.75
77250;BME280;66287;42.658;27.568;2023-04-15T01:46:58;99512.47;;;15.57;60.01
77250;BME280;66287;42.658;27.568;2023-04-15T01:49:25;99512.63;;;15.50;60.06
77250;BME280;66287;42.658;27.568;2023-04-15T01:51:52;99518.00;;;15.45;60.29
77250;BME280;66287;42.658;27.568;2023-04-15T01:54:18;99519.31;;;15.42;60.37
77250;BME280;66287;42.658;27.568;2023-04-15T01:56:43;99519.00;;;15.39;60.21
77250;BME280;66287;42.658;27.568;2023-04-15T01:59:09;99510.75;;;15.34;60.27
77250;BME280;66287;42.658;27.568;2023-04-15T02:01:34;99521.09;;;15.32;60.28
77250;BME280;66287;42.658;27.568;2023-04-15T02:04:00;99520.19;;;15.26;60.65
77250;BME280;66287;42.658;27.568;2023-04-15T02:06:25;99517.94;;;15.23;60.62
77250;BME280;66287;42.658;27.568;2023-04-15T02:08:53;99525.06;;;15.24;60.37
77250;BME280;66287;42.658;27.568;2023-04-15T02:11:19;99518.97;;;15.17;60.75
77250;BME280;66287;42.658;27.568;2023-04-15T02:13:44;99513.44;;;15.12;60.68
77250;BME280;66287;42.658;27.568;2023-04-15T02:16:16;99527.06;;;15.12;60.53
77250;BME280;66287;42.658;27.568;2023-04-15T02:18:43;99529.72;;;15.07;60.90
77250;BME280;66287;42.658;27.568;2023-04-15T02:21:09;99525.31;;;15.06;60.95
77250;BME280;66287;42.658;27.568;2023-04-15T02:23:36;99537.31;;;15.05;60.98
77250;BME280;66287;42.658;27.568;2023-04-15T02:26:02;99527.97;;;15.01;61.43
77250;BME280;66287;42.658;27.568;2023-04-15T02:28:30;99531.78;;;15.00;61.07
77250;BME280;66287;42.658;27.568;2023-04-15T02:30:55;99530.63;;;14.96;61.38
77250;BME280;66287;42.658;27.568;2023-04-15T02:33:23;99531.38;;;14.91;61.44
77250;BME280;66287;42.658;27.568;2023-04-15T02:35:49;99529.63;;;14.85;61.43
77250;BME280;66287;42.658;27.568;2023-04-15T02:38:14;99529.53;;;14.80;61.91
77250;BME280;66287;42.658;27.568;2023-04-15T02:40:42;99527.31;;;14.77;61.53
77250;BME280;66287;42.658;27.568;2023-04-15T02:43:07;99523.75;;;14.76;61.63
77250;BME280;66287;42.658;27.568;2023-04-15T02:45:34;99524.50;;;14.72;61.69
77250;BME280;66287;42.658;27.568;2023-04-15T02:48:02;99513.94;;;14.75;61.69
77250;BME280;66287;42.658;27.568;2023-04-15T02:50:30;99516.31;;;14.72;61.45
77250;BME280;66287;42.658;27.568;2023-04-15T02:52:56;99520.59;;;14.68;61.64
77250;BME280;66287;42.658;27.568;2023-04-15T02:55:21;99524.06;;;14.63;61.96
77250;BME280;66287;42.658;27.568;2023-04-15T02:57:47;99521.00;;;14.60;62.20
77250;BME280;66287;42.658;27.568;2023-04-15T03:00:13;99530.53;;;14.57;62.33
77250;BME280;66287;42.658;27.568;2023-04-15T03:02:40;99527.69;;;14.52;62.02
77250;BME280;66287;42.658;27.568;2023-04-15T03:05:10;99530.91;;;14.49;61.90
77250;BME280;66287;42.658;27.568;2023-04-15T03:07:36;99522.97;;;14.47;62.17
77250;BME280;66287;42.658;27.568;2023-04-15T03:10:01;99519.66;;;14.45;62.02
77250;BME280;66287;42.658;27.568;2023-04-15T03:12:26;99515.03;;;14.46;62.54
77250;BME280;66287;42.658;27.568;2023-04-15T03:14:54;99510.66;;;14.45;62.69
77250;BME280;66287;42.658;27.568;2023-04-15T03:17:30;99512.19;;;14.41;63.16
77250;BME280;66287;42.658;27.568;2023-04-15T03:19:56;99518.69;;;14.40;63.11
77250;BME280;66287;42.658;27.568;2023-04-15T03:22:21;99512.41;;;14.39;62.91
77250;BME280;66287;42.658;27.568;2023-04-15T03:24:47;99526.56;;;14.36;63.34
77250;BME280;66287;42.658;27.568;2023-04-15T03:27:12;99527.38;;;14.37;62.96
77250;BME280;66287;42.658;27.568;2023-04-15T03:29:38;99527.03;;;14.33;63.41
77250;BME280;66287;42.658;27.568;2023-04-15T03:32:03;99531.66;;;14.33;63.26
77250;BME280;66287;42.658;27.568;2023-04-15T03:34:32;99536.28;;;14.32;63.49
77250;BME280;66287;42.658;27.568;2023-04-15T03:36:57;99546.38;;;14.32;63.73
77250;BME280;66287;42.658;27.568;2023-04-15T03:39:23;99534.38;;;14.33;63.50
77250;BME280;66287;42.658;27.568;2023-04-15T03:41:48;99538.78;;;14.34;63.66
77250;BME280;66287;42.658;27.568;2023-04-15T03:44:13;99548.03;;;14.33;63.78
77250;BME280;66287;42.658;27.568;2023-04-15T03:46:39;99539.84;;;14.33;63.94
77250;BME280;66287;42.658;27.568;2023-04-15T03:49:05;99540.66;;;14.33;64.08
77250;BME280;66287;42.658;27.568;2023-04-15T03:51:31;99545.28;;;14.33;64.30
77250;BME280;66287;42.658;27.568;2023-04-15T03:53:56;99543.16;;;14.35;64.02
77250;BME280;66287;42.658;27.568;2023-04-15T03:56:23;99545.63;;;14.36;64.37
77250;BME280;66287;42.658;27.568;2023-04-15T03:58:48;99538.28;;;14.37;64.52
77250;BME280;66287;42.658;27.568;2023-04-15T04:01:13;99533.66;;;14.37;64.75
77250;BME280;66287;42.658;27.568;2023-04-15T04:03:39;99537.78;;;14.40;64.41
77250;BME280;66287;42.658;27.568;2023-04-15T04:06:04;99538.16;;;14.43;64.95
77250;BME280;66287;42.658;27.568;2023-04-15T04:08:30;99542.88;;;14.48;64.90
77250;BME280;66287;42.658;27.568;2023-04-15T04:10:55;99549.03;;;14.55;64.56
77250;BME280;66287;42.658;27.568;2023-04-15T04:13:21;99536.63;;;14.64;64.46
77250;BME280;66287;42.658;27.568;2023-04-15T04:15:46;99545.59;;;14.76;64.74
77250;BME280;66287;42.658;27.568;2023-04-15T04:18:11;99538.06;;;14.83;63.81
77250;BME280;66287;42.658;27.568;2023-04-15T04:20:37;99541.47;;;14.91;64.49
77250;BME280;66287;42.658;27.568;2023-04-15T04:23:02;99539.91;;;14.95;64.13
77250;BME280;66287;42.658;27.568;2023-04-15T04:25:28;99549.50;;;14.97;64.30
77250;BME280;66287;42.658;27.568;2023-04-15T04:27:53;99552.53;;;15.01;64.33
77250;BME280;66287;42.658;27.568;2023-04-15T04:30:18;99554.53;;;15.05;64.44
77250;BME280;66287;42.658;27.568;2023-04-15T04:32:44;99547.41;;;15.04;64.36
77250;BME280;66287;42.658;27.568;2023-04-15T04:35:09;99556.41;;;15.05;64.51
77250;BME280;66287;42.658;27.568;2023-04-15T04:37:35;99565.19;;;15.07;65.10
77250;BME280;66287;42.658;27.568;2023-04-15T04:40:01;99556.75;;;15.08;65.12
77250;BME280;66287;42.658;27.568;2023-04-15T04:42:26;99559.25;;;15.10;65.00
77250;BME280;66287;42.658;27.568;2023-04-15T04:44:51;99561.72;;;15.11;65.18
77250;BME280;66287;42.658;27.568;2023-04-15T04:47:17;99568.59;;;15.14;65.45
77250;BME280;66287;42.658;27.568;2023-04-15T04:49:42;99563.97;;;15.14;66.02
77250;BME280;66287;42.658;27.568;2023-04-15T04:52:07;99568.84;;;15.12;65.76
77250;BME280;66287;42.658;27.568;2023-04-15T04:54:33;99570.84;;;15.17;65.69
77250;BME280;66287;42.658;27.568;2023-04-15T04:56:58;99563.38;;;15.12;66.32
77250;BME280;66287;42.658;27.568;2023-04-15T04:59:24;99565.88;;;15.14;66.32
77250;BME280;66287;42.658;27.568;2023-04-15T05:01:49;99569.19;;;15.16;65.94
77250;BME280;66287;42.658;27.568;2023-04-15T05:04:15;99565.38;;;15.17;65.76
77250;BME280;66287;42.658;27.568;2023-04-15T05:06:40;99563.19;;;15.19;66.07
77250;BME280;66287;42.658;27.568;2023-04-15T05:09:06;99570.31;;;15.20;66.75
77250;BME280;66287;42.658;27.568;2023-04-15T05:11:31;99579.56;;;15.19;66.74
77250;BME280;66287;42.658;27.568;2023-04-15T05:13:57;99579.31;;;15.21;66.83
77250;BME280;66287;42.658;27.568;2023-04-15T05:16:23;99579.91;;;15.23;66.52
77250;BME280;66287;42.658;27.568;2023-04-15T05:18:50;99579.66;;;15.24;66.84
77250;BME280;66287;42.658;27.568;2023-04-15T05:21:15;99591.16;;;15.26;66.77
77250;BME280;66287;42.658;27.568;2023-04-15T05:23:41;99597.69;;;15.25;67.13
77250;BME280;66287;42.658;27.568;2023-04-15T05:26:06;99617.88;;;15.24;67.15
77250;BME280;66287;42.658;27.568;2023-04-15T05:28:32;99619.53;;;15.25;65.64
77250;BME280;66287;42.658;27.568;2023-04-15T05:30:57;99624.41;;;15.23;67.33
77250;BME280;66287;42.658;27.568;2023-04-15T05:33:22;99641.03;;;15.22;66.78
77250;BME280;66287;42.658;27.568;2023-04-15T05:35:48;99645.91;;;15.20;67.00
77250;BME280;66287;42.658;27.568;2023-04-15T05:38:13;99660.38;;;15.20;66.73
77250;BME280;66287;42.658;27.568;2023-04-15T05:40:39;99675.09;;;15.19;66.72
77250;BME280;66287;42.658;27.568;2023-04-15T05:43:04;99679.19;;;15.16;66.72
77250;BME280;66287;42.658;27.568;2023-04-15T05:45:30;99675.03;;;15.14;67.18
77250;BME280;66287;42.658;27.568;2023-04-15T05:47:55;99666.84;;;15.14;66.79
77250;BME280;66287;42.658;27.568;2023-04-15T05:50:21;99666.25;;;15.12;66.81
77250;BME280;66287;42.658;27.568;2023-04-15T05:52:46;99661.28;;;15.09;67.11
77250;BME280;66287;42.658;27.568;2023-04-15T05:55:12;99663.69;;;15.05;67.32
77250;BME280;66287;42.658;27.568;2023-04-15T05:57:38;99656.91;;;15.08;66.72
77250;BME280;66287;42.658;27.568;2023-04-15T06:00:04;99658.22;;;15.05;67.08
77250;BME280;66287;42.658;27.568;2023-04-15T06:02:34;99653.59;;;15.06;67.29
77250;BME280;66287;42.658;27.568;2023-04-15T06:05:00;99654.66;;;15.05;66.80
77250;BME280;66287;42.658;27.568;2023-04-15T06:07:26;99672.34;;;15.02;66.59
77250;BME280;66287;42.658;27.568;2023-04-15T06:09:51;99680.06;;;15.05;66.74
77250;BME280;66287;42.658;27.568;2023-04-15T06:12:16;99679.47;;;15.03;66.66
77250;BME280;66287;42.658;27.568;2023-04-15T06:14:42;99678.88;;;15.01;66.63
77250;BME280;66287;42.658;27.568;2023-04-15T06:17:07;99677.31;;;15.05;66.66
77250;BME280;66287;42.658;27.568;2023-04-15T06:19:33;99678.50;;;15.09;66.41
77250;BME280;66287;42.658;27.568;2023-04-15T06:21:59;99678.75;;;15.08;66.75
77250;BME280;66287;42.658;27.568;2023-04-15T06:24:24;99693.47;;;15.07;66.97
77250;BME280;66287;42.658;27.568;2023-04-15T06:26:50;99689.66;;;15.08;66.66
77250;BME280;66287;42.658;27.568;2023-04-15T06:29:15;99694.97;;;15.14;66.97
77250;BME280;66287;42.658;27.568;2023-04-15T06:31:41;99683.41;;;15.24;66.45
77250;BME280;66287;42.658;27.568;2023-04-15T06:34:06;99683.41;;;15.24;66.56
77250;BME280;66287;42.658;27.568;2023-04-15T06:36:32;99698.59;;;15.20;66.17
77250;BME280;66287;42.658;27.568;2023-04-15T06:38:57;99712.75;;;15.17;67.08
77250;BME280;66287;42.658;27.568;2023-04-15T06:41:23;99710.44;;;15.26;66.39
77250;BME280;66287;42.658;27.568;2023-04-15T06:43:48;99711.03;;;15.28;66.83
77250;BME280;66287;42.658;27.568;2023-04-15T06:46:13;99708.66;;;15.31;65.99
77250;BME280;66287;42.658;27.568;2023-04-15T06:48:39;99707.69;;;15.37;66.00
77250;BME280;66287;42.658;27.568;2023-04-15T06:51:04;99709.34;;;15.38;65.90
77250;BME280;66287;42.658;27.568;2023-04-15T06:53:30;99724.78;;;15.33;66.88
77250;BME280;66287;42.658;27.568;2023-04-15T06:55:55;99727.91;;;15.25;67.25
77250;BME280;66287;42.658;27.568;2023-04-15T06:58:21;99730.81;;;15.18;66.94
77250;BME280;66287;42.658;27.568;2023-04-15T07:00:46;99738.72;;;15.20;67.12
77250;BME280;66287;42.658;27.568;2023-04-15T07:03:12;99734.78;;;15.27;66.43
77250;BME280;66287;42.658;27.568;2023-04-15T07:05:38;99742.47;;;15.30;66.85
77250;BME280;66287;42.658;27.568;2023-04-15T07:08:04;99737.72;;;15.37;66.82
77250;BME280;66287;42.658;27.568;2023-04-15T07:10:29;99742.91;;;15.39;66.32
77250;BME280;66287;42.658;27.568;2023-04-15T07:12:55;99748.03;;;15.35;67.00
77250;BME280;66287;42.658;27.568;2023-04-15T07:15:20;99759.63;;;15.42;66.21
77250;BME280;66287;42.658;27.568;2023-04-15T07:17:46;99748.31;;;15.50;66.50
77250;BME280;66287;42.658;27.568;2023-04-15T07:20:12;99734.84;;;15.61;66.51
77250;BME280;66287;42.658;27.568;2023-04-15T07:22:38;99751.34;;;15.66;66.36
77250;BME280;66287;42.658;27.568;2023-04-15T07:25:03;99769.47;;;15.72;65.45
77250;BME280;66287;42.658;27.568;2023-04-15T07:27:29;99775.78;;;15.72;65.48
77250;BME280;66287;42.658;27.568;2023-04-15T07:29:55;99784.06;;;15.77;65.60
77250;BME280;66287;42.658;27.568;2023-04-15T07:32:20;99769.06;;;15.80;65.35
77250;BME280;66287;42.658;27.568;2023-04-15T07:34:46;99777.84;;;15.82;65.87
77250;BME280;66287;42.658;27.568;2023-04-15T07:37:11;99767.34;;;15.91;65.96
77250;BME280;66287;42.658;27.568;2023-04-15T07:39:36;99765.50;;;16.13;65.94
77250;BME280;66287;42.658;27.568;2023-04-15T07:42:02;99768.13;;;16.25;65.16
77250;BME280;66287;42.658;27.568;2023-04-15T07:44:28;99778.09;;;16.31;64.25
77250;BME280;66287;42.658;27.568;2023-04-15T07:46:54;99796.16;;;16.32;64.35
77250;BME280;66287;42.658;27.568;2023-04-15T07:49:19;99783.06;;;16.34;64.76
77250;BME280;66287;42.658;27.568;2023-04-15T07:51:45;99788.03;;;16.37;64.57
77250;BME280;66287;42.658;27.568;2023-04-15T07:54:11;99786.38;;;16.36;64.30
77250;BME280;66287;42.658;27.568;2023-04-15T07:56:36;99789.69;;;16.38;64.39
77250;BME280;66287;42.658;27.568;2023-04-15T07:59:02;99780.66;;;16.37;64.60
77250;BME280;66287;42.658;27.568;2023-04-15T08:01:29;99773.28;;;16.38;64.57
77250;BME280;66287;42.658;27.568;2023-04-15T08:03:54;99784.47;;;16.36;64.38
77250;BME280;66287;42.658;27.568;2023-04-15T08:06:20;99792.41;;;16.38;63.98
77250;BME280;66287;42.658;27.568;2023-04-15T08:08:45;99796.78;;;16.39;64.55
77250;BME280;66287;42.658;27.568;2023-04-15T08:11:11;99800.00;;;16.52;65.00
77250;BME280;66287;42.658;27.568;2023-04-15T08:13:37;99788.88;;;16.76;64.49
77250;BME280;66287;42.658;27.568;2023-04-15T08:16:16;99772.81;;;17.06;63.26
77250;BME280;66287;42.658;27.568;2023-04-15T08:18:48;99786.06;;;17.36;62.81
77250;BME280;66287;42.658;27.568;2023-04-15T08:21:17;99780.16;;;17.49;62.51
77250;BME280;66287;42.658;27.568;2023-04-15T08:23:44;99780.47;;;17.53;62.33
77250;BME280;66287;42.658;27.568;2023-04-15T08:26:09;99785.94;;;17.53;62.03
77250;BME280;66287;42.658;27.568;2023-04-15T08:28:36;99786.22;;;17.51;62.11
77250;BME280;66287;42.658;27.568;2023-04-15T08:31:02;99795.25;;;17.52;62.14
77250;BME280;66287;42.658;27.568;2023-04-15T08:33:28;99782.94;;;17.54;62.12
77250;BME280;66287;42.658;27.568;2023-04-15T08:35:53;99779.50;;;17.64;62.35
77250;BME280;66287;42.658;27.568;2023-04-15T08:38:18;99781.00;;;17.77;62.30
77250;BME280;66287;42.658;27.568;2023-04-15T08:40:44;99787.41;;;17.87;61.98
77250;BME280;66287;42.658;27.568;2023-04-15T08:43:11;99773.28;;;18.06;61.90
77250;BME280;66287;42.658;27.568;2023-04-15T08:45:37;99764.22;;;18.37;61.56
77250;BME280;66287;42.658;27.568;2023-04-15T08:48:04;99760.88;;;18.82;61.19
77250;BME280;66287;42.658;27.568;2023-04-15T08:50:30;99758.00;;;19.19;60.91
77250;BME280;66287;42.658;27.568;2023-04-15T08:52:56;99765.47;;;19.39;60.10
77250;BME280;66287;42.658;27.568;2023-04-15T08:55:23;99774.03;;;19.38;59.35
77250;BME280;66287;42.658;27.568;2023-04-15T08:57:49;99787.97;;;19.21;58.71
77250;BME280;66287;42.658;27.568;2023-04-15T09:00:15;99786.56;;;19.13;59.46
77250;BME280;66287;42.658;27.568;2023-04-15T09:02:41;99799.22;;;19.19;59.48
77250;BME280;66287;42.658;27.568;2023-04-15T09:05:07;99791.88;;;19.35;59.22
77250;BME280;66287;42.658;27.568;2023-04-15T09:07:33;99786.94;;;19.47;58.88
77250;BME280;66287;42.658;27.568;2023-04-15T09:09:59;99784.19;;;19.47;58.04
77250;BME280;66287;42.658;27.568;2023-04-15T09:12:25;99788.59;;;19.48;58.25
77250;BME280;66287;42.658;27.568;2023-04-15T09:14:51;99781.72;;;19.46;57.46
77250;BME280;66287;42.658;27.568;2023-04-15T09:17:17;99768.22;;;19.34;56.54
77250;BME280;66287;42.658;27.568;2023-04-15T09:19:43;99763.81;;;19.28;57.23
77250;BME280;66287;42.658;27.568;2023-04-15T09:22:08;99757.19;;;19.24;57.78
77250;BME280;66287;42.658;27.568;2023-04-15T09:24:35;99762.97;;;19.17;58.16
77250;BME280;66287;42.658;27.568;2023-04-15T09:27:05;99770.91;;;19.09;58.42
77250;BME280;66287;42.658;27.568;2023-04-15T09:29:31;99780.28;;;19.18;58.25
77250;BME280;66287;42.658;27.568;2023-04-15T09:31:56;99784.44;;;19.31;57.49
77250;BME280;66287;42.658;27.568;2023-04-15T09:34:24;99790.84;;;19.61;58.02
77250;BME280;66287;42.658;27.568;2023-04-15T09:36:59;99789.25;;;19.96;57.17
77250;BME280;66287;42.658;27.568;2023-04-15T09:39:24;99772.44;;;20.23;56.13
77250;BME280;66287;42.658;27.568;2023-04-15T09:42:05;99767.72;;;20.59;56.07
77250;BME280;66287;42.658;27.568;2023-04-15T09:44:31;99765.34;;;21.07;54.84
77250;BME280;66287;42.658;27.568;2023-04-15T09:46:56;99773.97;;;21.88;53.66
77250;BME280;66287;42.658;27.568;2023-04-15T09:49:22;99757.88;;;22.34;52.94
77250;BME280;66287;42.658;27.568;2023-04-15T09:51:47;99758.91;;;22.67;50.45
77250;BME280;66287;42.658;27.568;2023-04-15T09:54:17;99764.88;;;23.41;49.17
77250;BME280;66287;42.658;27.568;2023-04-15T09:56:43;99766.94;;;24.57;47.24
77250;BME280;66287;42.658;27.568;2023-04-15T09:59:09;99757.06;;;24.78;44.28
77250;BME280;66287;42.658;27.568;2023-04-15T10:01:35;99759.63;;;25.29;43.06
77250;BME280;66287;42.658;27.568;2023-04-15T10:04:04;99754.19;;;26.41;43.57
77250;BME280;66287;42.658;27.568;2023-04-15T10:06:29;99761.69;;;27.11;41.42
77250;BME280;66287;42.658;27.568;2023-04-15T10:08:58;99764.41;;;26.63;39.57
77250;BME280;66287;42.658;27.568;2023-04-15T10:11:27;99761.88;;;27.15;40.67
77250;BME280;66287;42.658;27.568;2023-04-15T10:13:56;99767.00;;;27.47;40.20
77250;BME280;66287;42.658;27.568;2023-04-15T10:16:21;99767.34;;;28.06;37.26
77250;BME280;66287;42.658;27.568;2023-04-15T10:18:50;99767.53;;;27.92;37.01
77250;BME280;66287;42.658;27.568;2023-04-15T10:21:18;99765.75;;;27.05;38.00
77250;BME280;66287;42.658;27.568;2023-04-15T10:23:44;99767.19;;;27.59;36.94
77250;BME280;66287;42.658;27.568;2023-04-15T10:26:10;99757.03;;;27.81;38.11
77250;BME280;66287;42.658;27.568;2023-04-15T10:28:37;99758.81;;;28.02;37.86
77250;BME280;66287;42.658;27.568;2023-04-15T10:31:02;99759.22;;;29.03;35.42
77250;BME280;66287;42.658;27.568;2023-04-15T10:33:28;99760.47;;;29.14;35.90
77250;BME280;66287;42.658;27.568;2023-04-15T10:35:54;99761.25;;;29.53;35.70
77250;BME280;66287;42.658;27.568;2023-04-15T10:46:21;99756.44;;;30.15;34.77
77250;BME280;66287;42.658;27.568;2023-04-15T10:48:51;99762.91;;;29.87;34.28
77250;BME280;66287;42.658;27.568;2023-04-15T10:51:25;99761.22;;;30.15;33.29
77250;BME280;66287;42.658;27.568;2023-04-15T10:53:54;99754.97;;;29.76;33.48
77250;BME280;66287;42.658;27.568;2023-04-15T10:56:20;99755.91;;;30.34;35.10
77250;BME280;66287;42.658;27.568;2023-04-15T10:58:45;99757.22;;;30.37;32.39
77250;BME280;66287;42.658;27.568;2023-04-15T11:01:11;99750.28;;;30.67;30.52
77250;BME280;66287;42.658;27.568;2023-04-15T11:03:38;99769.13;;;31.15;30.12
77250;BME280;66287;42.658;27.568;2023-04-15T11:06:04;99760.31;;;31.54;30.03
77250;BME280;66287;42.658;27.568;2023-04-15T11:11:14;99755.09;;;31.28;31.82
77250;BME280;66287;42.658;27.568;2023-04-15T11:13:46;99748.69;;;31.15;31.30
77250;BME280;66287;42.658;27.568;2023-04-15T11:16:12;99742.75;;;31.16;29.85
77250;BME280;66287;42.658;27.568;2023-04-15T11:18:40;99735.00;;;31.38;31.19
77250;BME280;66287;42.658;27.568;2023-04-15T11:21:08;99744.69;;;32.21;33.13
77250;BME280;66287;42.658;27.568;2023-04-15T11:23:50;99742.00;;;32.40;29.63
77250;BME280;66287;42.658;27.568;2023-04-15T11:26:29;99743.66;;;32.13;29.89
77250;BME280;66287;42.658;27.568;2023-04-15T11:28:55;99739.81;;;31.25;30.14
77250;BME280;66287;42.658;27.568;2023-04-15T11:31:21;99741.56;;;31.30;30.83
77250;BME280;66287;42.658;27.568;2023-04-15T11:36:19;99745.25;;;31.46;31.13
77250;BME280;66287;42.658;27.568;2023-04-15T11:38:45;99742.41;;;31.58;30.44
77250;BME280;66287;42.658;27.568;2023-04-15T11:41:11;99744.75;;;31.68;29.73
77250;BME280;66287;42.658;27.568;2023-04-15T11:43:37;99739.13;;;32.08;30.53
77250;BME280;66287;42.658;27.568;2023-04-15T11:46:02;99735.41;;;32.48;29.00
77250;BME280;66287;42.658;27.568;2023-04-15T11:48:29;99735.13;;;32.37;28.44
77250;BME280;66287;42.658;27.568;2023-04-15T11:50:56;99734.09;;;32.73;28.06
77250;BME280;66287;42.658;27.568;2023-04-15T11:53:22;99730.16;;;32.46;28.11
77250;BME280;66287;42.658;27.568;2023-04-15T11:55:51;99722.72;;;31.95;29.75
77250;BME280;66287;42.658;27.568;2023-04-15T12:00:46;99734.59;;;32.32;28.38
77250;BME280;66287;42.658;27.568;2023-04-15T12:08:46;99722.84;;;32.14;29.41
77250;BME280;66287;42.658;27.568;2023-04-15T12:13:46;99726.84;;;32.88;27.17
77250;BME280;66287;42.658;27.568;2023-04-15T12:16:15;99725.47;;;32.50;27.78
77250;BME280;66287;42.658;27.568;2023-04-15T12:18:40;99723.91;;;32.69;27.42
77250;BME280;66287;42.658;27.568;2023-04-15T12:21:09;99719.56;;;34.31;27.17
77250;BME280;66287;42.658;27.568;2023-04-15T12:23:39;99718.34;;;35.27;24.43
77250;BME280;66287;42.658;27.568;2023-04-15T12:26:11;99716.63;;;34.69;25.63
77250;BME280;66287;42.658;27.568;2023-04-15T12:28:39;99720.22;;;34.05;23.73
77250;BME280;66287;42.658;27.568;2023-04-15T12:31:08;99721.69;;;33.60;25.58
77250;BME280;66287;42.658;27.568;2023-04-15T12:33:34;99705.31;;;32.17;27.39
77250;BME280;66287;42.658;27.568;2023-04-15T12:35:59;99710.44;;;31.59;27.83
77250;BME280;66287;42.658;27.568;2023-04-15T12:38:25;99706.72;;;31.55;29.34
77250;BME280;66287;42.658;27.568;2023-04-15T12:40:50;99717.19;;;31.18;29.85
77250;BME280;66287;42.658;27.568;2023-04-15T12:43:16;99706.44;;;31.32;29.23
77250;BME280;66287;42.658;27.568;2023-04-15T12:45:41;99702.78;;;31.84;28.55
77250;BME280;66287;42.658;27.568;2023-04-15T12:48:06;99708.19;;;31.37;29.81
77250;BME280;66287;42.658;27.568;2023-04-15T12:50:34;99716.00;;;31.99;28.76
77250;BME280;66287;42.658;27.568;2023-04-15T12:52:59;99708.59;;;32.98;26.86
77250;BME280;66287;42.658;27.568;2023-04-15T12:55:25;99708.44;;;32.59;28.06
77250;BME280;66287;42.658;27.568;2023-04-15T12:57:50;99710.91;;;32.92;27.65
77250;BME280;66287;42.658;27.568;2023-04-15T13:00:16;99716.06;;;33.60;26.84
77250;BME280;66287;42.658;27.568;2023-04-15T13:02:44;99708.06;;;33.62;26.74
77250;BME280;66287;42.658;27.568;2023-04-15T13:05:10;99702.03;;;32.74;28.44
77250;BME280;66287;42.658;27.568;2023-04-15T13:07:36;99707.25;;;33.07;27.51
77250;BME280;66287;42.658;27.568;2023-04-15T13:10:01;99701.41;;;33.32;27.42